Terminal Aerodrome Forecast
Issued by NWS

Home | Current Version | Previous Version | Text Only | Print | Product List | Glossary On
Versions: 1 2 3 4 5 6 7 8 9 10 11 12 13 14 15 16 17 18 19 20 21 22 23 24 25 26
000
FTUS44 KEWX 201300 AAA
TAFSSF
TAF AMD
KSSF 201341Z 2014/2112 01008KT P6SM OVC012
     FM201700 05003KT P6SM OVC015
     FM202000 06003KT P6SM OVC025
     FM210600 VRB02KT 6SM BR OVC015
     FM211000 27002KT 4SM BR OVC007=

USA.gov is the U.S. government's official web portal to all federal, state and local government web resources and services.